Alice International Airport
KALI : now visible

Airfield :











YOU CAN JOIN US ON...

 
LOGIN :

Register | Disclaimer

   EN    FR    IT 

 









Legend :    VFR   Marginal VFR   IFR   Intensive IFR   Very Intensive IFR
Visi :
Ceiling :
>= 8 km
>= 3000ft
5 to 8 km
1000 to 3000 ft
1500m to 5 km
500 to 1000 ft
800 to 1500m
200 to 500 ft
< 800m
< 200 ft
Symbols :   Thunderstorms  Fog  Heavy snow  Heavy precipitations  Wind > 20 kt






- Airport Elevation : 178 ft


KALI - Alice International

CURRENT METAR :
  • 141953Z AUTO 20013KT 10SM CLR 33/07 A2974 RMK AO2 SLP068 T03280067 /

EXPIRED METARs :
  • 141853Z AUTO 19015KT 10SM CLR 32/06 A2977 RMK AO2 SLP080 T03170061 $
  • 141753Z AUTO 20015KT 10SM CLR 31/05 A2982 RMK AO2 SLP094 T03110050 10311 20083 58022

TAF KALI
Valid from the 14 at 18:00 until the 15 at 18:00 UTC


141733Z 1418/1518 18008KT P6SM SKC
FM151000 18005KT 4SM BR SCT008 WS015/19040KT
FM151500 18013G20KT P6SM SCT015



MET'MAP, your aeronautical weather chart ! - Copyright ORBIFLY December 2007 - Disclaimer

ORBIFLY MET'MAP TEAM :

Programming & Development : Alexandra Zaïnal
Concept & original design : Baudouin d'Aumeries
Assistance for programming : Marc-Olivier Méhu
Technical & hardware support : Manuel Goepfert

Contact : metmap@orbifly.com




SOURCES & CREDITS :

   NOAA       Earth
Advisory